createdAt,value
2024-02-28T00:00:12.859Z,33.50
2024-02-28T00:03:05.148Z,34.40
2024-02-28T00:05:37.071Z,35.40
2024-02-28T00:08:09.720Z,36.60
2024-02-28T00:10:41.649Z,35.60
2024-02-28T00:13:13.833Z,34.10
2024-02-28T00:15:46.315Z,37.00
2024-02-28T00:18:18.547Z,32.80
2024-02-28T00:20:50.581Z,34.10
2024-02-28T00:23:22.567Z,34.00
2024-02-28T00:25:55.155Z,36.80
2024-02-28T00:28:27.064Z,30.20
2024-02-28T00:30:58.999Z,34.80
2024-02-28T00:33:31.242Z,32.90
2024-02-28T00:36:03.219Z,33.10
2024-02-28T00:38:35.227Z,37.00
2024-02-28T00:41:07.218Z,39.10
2024-02-28T00:43:39.129Z,35.10
2024-02-28T00:46:13.456Z,38.50
2024-02-28T00:48:46.143Z,36.70
2024-02-28T00:51:18.646Z,37.00
2024-02-28T00:53:50.549Z,38.30
2024-02-28T00:56:22.441Z,38.90
2024-02-28T00:58:54.842Z,40.20
2024-02-28T01:01:26.844Z,36.70
2024-02-28T01:03:58.853Z,38.90
2024-02-28T01:06:30.959Z,41.80
2024-02-28T01:09:05.180Z,40.00
2024-02-28T01:11:37.792Z,47.60
2024-02-28T01:14:10.181Z,41.90
2024-02-28T01:16:42.238Z,41.10
2024-02-28T01:19:14.231Z,41.60
2024-02-28T01:21:46.781Z,43.90
2024-02-28T01:24:19.257Z,45.10
2024-02-28T01:26:51.138Z,46.10
2024-02-28T01:29:22.953Z,49.80
2024-02-28T01:31:54.842Z,46.80
2024-02-28T01:34:26.827Z,47.90
2024-02-28T01:36:58.752Z,45.90
2024-02-28T01:39:30.831Z,48.60
2024-02-28T01:42:03.096Z,50.30
2024-02-28T01:44:37.714Z,48.00
2024-02-28T01:47:09.815Z,49.90
2024-02-28T01:49:42.739Z,48.60
2024-02-28T01:52:16.197Z,46.40
2024-02-28T01:54:48.203Z,53.60
2024-02-28T01:57:20.781Z,47.60
2024-02-28T01:59:52.923Z,46.50
2024-02-28T02:02:25.429Z,48.30
2024-02-28T02:04:59.090Z,47.80
2024-02-28T02:07:31.426Z,46.10
2024-02-28T02:10:03.416Z,50.30
2024-02-28T02:12:35.343Z,47.40
2024-02-28T02:15:09.402Z,45.90
2024-02-28T02:17:41.403Z,50.00
2024-02-28T02:20:16.814Z,45.70
2024-02-28T02:22:49.022Z,51.10
2024-02-28T02:25:21.102Z,44.70
2024-02-28T02:27:53.142Z,52.50
2024-02-28T02:30:25.150Z,47.50
2024-02-28T02:32:57.129Z,46.00
2024-02-28T02:35:29.178Z,44.80
2024-02-28T02:38:01.193Z,48.30
2024-02-28T02:40:33.248Z,47.30
2024-02-28T02:43:05.370Z,52.80
2024-02-28T02:45:37.457Z,52.10
2024-02-28T02:48:10.633Z,48.80
2024-02-28T02:50:42.825Z,46.90
2024-02-28T02:53:15.548Z,43.60
2024-02-28T02:55:47.517Z,48.00
2024-02-28T02:58:19.803Z,50.20
2024-02-28T03:00:51.999Z,48.60
2024-02-28T03:03:24.464Z,47.90
2024-02-28T03:05:56.858Z,49.20
2024-02-28T03:08:28.723Z,49.50
2024-02-28T03:11:00.894Z,50.00
2024-02-28T03:13:32.916Z,52.90
2024-02-28T03:16:07.349Z,49.20
2024-02-28T03:18:40.025Z,53.60
2024-02-28T03:21:12.121Z,48.70
2024-02-28T03:23:44.456Z,53.80
2024-02-28T03:26:17.215Z,53.90
2024-02-28T03:28:49.189Z,53.40
2024-02-28T03:31:21.105Z,52.70
2024-02-28T03:33:53.031Z,54.80
2024-02-28T03:36:25.020Z,55.70
2024-02-28T03:38:56.950Z,54.50
2024-02-28T03:41:29.212Z,56.80
2024-02-28T03:44:01.088Z,55.50
2024-02-28T03:46:33.009Z,53.20
2024-02-28T03:49:05.082Z,59.20
2024-02-28T03:51:43.071Z,55.80
2024-02-28T03:54:15.144Z,53.30
2024-02-28T03:56:47.040Z,63.00
2024-02-28T03:59:19.059Z,56.10
2024-02-28T04:01:51.322Z,56.80
2024-02-28T04:04:23.178Z,54.20
2024-02-28T04:06:55.982Z,57.30
2024-02-28T04:09:28.054Z,56.40
2024-02-28T04:12:00.103Z,58.30
2024-02-28T04:14:32.101Z,59.80
2024-02-28T04:17:04.064Z,58.20
2024-02-28T04:19:38.724Z,57.40
2024-02-28T04:22:10.771Z,54.20
2024-02-28T04:24:42.750Z,57.10
2024-02-28T04:27:14.738Z,57.30
2024-02-28T04:29:46.747Z,66.10
2024-02-28T04:32:18.783Z,56.00
2024-02-28T04:34:50.766Z,54.60
2024-02-28T04:37:23.184Z,54.20
2024-02-28T04:39:55.196Z,53.50
2024-02-28T04:42:27.412Z,61.00
2024-02-28T04:44:59.361Z,60.80
2024-02-28T04:47:36.716Z,60.90
2024-02-28T04:50:16.131Z,61.50
2024-02-28T04:52:48.237Z,58.40
2024-02-28T04:55:20.502Z,60.40
2024-02-28T04:57:52.658Z,59.10
2024-02-28T05:00:24.790Z,60.60
2024-02-28T05:02:57.005Z,54.30
2024-02-28T05:05:29.019Z,59.40
2024-02-28T05:08:00.953Z,52.60
2024-02-28T05:10:35.503Z,56.70
2024-02-28T05:13:07.958Z,54.40
2024-02-28T05:15:39.980Z,59.30
2024-02-28T05:18:12.099Z,57.10
2024-02-28T05:20:44.365Z,59.00
2024-02-28T05:23:16.363Z,57.80
2024-02-28T05:25:48.758Z,54.70
2024-02-28T05:28:20.741Z,55.20
2024-02-28T05:30:52.975Z,55.00
2024-02-28T05:33:25.101Z,63.00
2024-02-28T05:35:57.087Z,59.50
2024-02-28T05:38:29.023Z,57.60
2024-02-28T05:41:00.915Z,57.30
2024-02-28T05:43:34.493Z,56.50
2024-02-28T05:46:06.651Z,55.10
2024-02-28T05:48:38.627Z,60.10
2024-02-28T05:51:10.667Z,59.30
2024-02-28T05:53:43.809Z,58.90
2024-02-28T05:56:16.342Z,59.60
2024-02-28T05:58:49.249Z,59.50
2024-02-28T06:01:21.648Z,60.20
2024-02-28T06:03:54.201Z,58.70
2024-02-28T06:06:27.062Z,58.20
2024-02-28T06:08:59.101Z,59.80
2024-02-28T06:11:31.503Z,56.80
2024-02-28T06:14:05.221Z,58.80
2024-02-28T06:16:37.220Z,58.00
2024-02-28T06:19:09.186Z,60.10
2024-02-28T06:21:41.161Z,59.90
2024-02-28T06:24:13.311Z,57.80
2024-02-28T06:26:48.365Z,58.40
2024-02-28T06:29:23.405Z,55.70
2024-02-28T06:31:56.682Z,58.00
2024-02-28T06:34:28.719Z,62.60
2024-02-28T06:37:00.738Z,60.60
2024-02-28T06:39:33.001Z,59.10
2024-02-28T06:42:05.362Z,55.50
2024-02-28T06:44:37.381Z,57.80
2024-02-28T06:47:10.316Z,59.30
2024-02-28T06:49:42.322Z,61.90
2024-02-28T06:52:14.352Z,63.30
2024-02-28T06:54:46.446Z,58.70
2024-02-28T06:57:18.639Z,54.60
2024-02-28T06:59:50.621Z,55.80
2024-02-28T07:02:22.735Z,60.00
2024-02-28T07:04:54.692Z,60.10
2024-02-28T07:07:26.557Z,54.10
2024-02-28T07:09:58.650Z,56.00
2024-02-28T07:12:30.742Z,53.80
2024-02-28T07:15:02.778Z,58.70
2024-02-28T07:17:35.337Z,53.30
2024-02-28T07:20:09.769Z,57.10
2024-02-28T07:22:43.885Z,55.40
2024-02-28T07:25:16.067Z,59.10
2024-02-28T07:27:48.096Z,52.30
2024-02-28T07:30:21.053Z,55.70
2024-02-28T07:32:54.162Z,52.70
2024-02-28T07:35:26.398Z,57.60
2024-02-28T07:37:59.025Z,52.70
2024-02-28T07:40:31.335Z,53.10
2024-02-28T07:43:03.575Z,54.20
2024-02-28T07:45:35.650Z,50.70
2024-02-28T07:48:09.066Z,55.60
2024-02-28T07:50:43.286Z,56.60
2024-02-28T07:53:17.024Z,50.40
2024-02-28T07:55:49.013Z,51.00
2024-02-28T07:58:21.881Z,53.00
2024-02-28T08:00:54.705Z,50.30
2024-02-28T08:03:26.800Z,50.10
2024-02-28T08:05:59.427Z,53.50
2024-02-28T08:08:31.605Z,49.50
2024-02-28T08:11:04.659Z,51.80
2024-02-28T08:13:36.727Z,46.70
2024-02-28T08:16:10.409Z,53.60
2024-02-28T08:18:42.469Z,52.60
2024-02-28T08:21:14.480Z,53.90
2024-02-28T08:23:46.492Z,55.40
2024-02-28T08:26:18.766Z,50.00
2024-02-28T08:28:50.784Z,47.40
2024-02-28T08:31:23.156Z,45.40
2024-02-28T08:33:56.860Z,52.70
2024-02-28T08:36:29.371Z,51.50
2024-02-28T08:39:01.321Z,47.00
2024-02-28T08:41:33.332Z,49.10
2024-02-28T08:44:05.524Z,43.20
2024-02-28T08:46:37.612Z,47.70
2024-02-28T08:49:10.056Z,48.30
2024-02-28T08:51:42.779Z,50.30
2024-02-28T08:54:14.858Z,48.10
2024-02-28T08:56:53.583Z,47.70
2024-02-28T08:59:29.399Z,43.00
2024-02-28T09:02:01.379Z,47.70
2024-02-28T09:04:33.470Z,44.90
2024-02-28T09:07:05.858Z,46.00
2024-02-28T09:09:39.413Z,39.30
2024-02-28T09:12:12.007Z,44.80
2024-02-28T09:14:45.597Z,44.10
2024-02-28T09:17:17.651Z,45.40
2024-02-28T09:19:49.651Z,40.40
2024-02-28T09:22:22.788Z,46.20
2024-02-28T09:24:54.927Z,43.10
2024-02-28T09:27:27.386Z,45.20
2024-02-28T09:29:59.425Z,50.10
2024-02-28T09:32:31.476Z,45.80
2024-02-28T09:35:04.610Z,43.80
2024-02-28T09:37:36.839Z,50.40
2024-02-28T09:40:13.710Z,44.40
2024-02-28T09:42:48.715Z,46.10
2024-02-28T09:45:22.544Z,42.20
2024-02-28T09:47:54.767Z,44.80
2024-02-28T09:50:27.927Z,44.10
2024-02-28T09:53:09.469Z,47.10
2024-02-28T09:55:43.111Z,45.10
2024-02-28T09:58:15.170Z,45.80
2024-02-28T10:00:49.080Z,45.60
2024-02-28T10:03:24.499Z,48.00
2024-02-28T10:05:56.749Z,49.30
2024-02-28T10:08:30.396Z,48.10
2024-02-28T10:11:02.309Z,48.30
2024-02-28T10:13:34.332Z,45.00
2024-02-28T10:16:08.891Z,46.80
2024-02-28T10:18:40.988Z,48.20
2024-02-28T10:21:13.775Z,47.10
2024-02-28T10:23:47.265Z,49.00
2024-02-28T10:26:19.861Z,50.20
2024-02-28T10:28:53.444Z,46.50
2024-02-28T10:31:26.253Z,45.90
2024-02-28T10:33:58.840Z,49.30
2024-02-28T10:36:34.799Z,48.90
2024-02-28T10:39:08.180Z,51.90
2024-02-28T10:41:41.847Z,52.00
2024-02-28T10:44:14.856Z,47.30
2024-02-28T10:46:51.471Z,50.70
2024-02-28T10:49:23.477Z,52.30
2024-02-28T10:51:58.899Z,46.50
2024-02-28T10:54:33.737Z,48.20
2024-02-28T10:57:07.763Z,48.10
2024-02-28T10:59:42.671Z,50.80
2024-02-28T11:02:15.200Z,56.20
2024-02-28T11:04:47.595Z,50.90
2024-02-28T11:07:24.688Z,50.30
2024-02-28T11:09:59.024Z,54.40
2024-02-28T11:12:32.060Z,51.00
2024-02-28T11:15:07.584Z,49.80
2024-02-28T11:17:39.654Z,50.40
2024-02-28T11:20:19.101Z,51.40
2024-02-28T11:22:59.002Z,55.50
2024-02-28T11:25:31.015Z,55.70
2024-02-28T11:28:03.414Z,62.10
2024-02-28T11:30:35.482Z,61.00
2024-02-28T11:33:09.919Z,64.70
2024-02-28T11:35:42.686Z,66.80
2024-02-28T11:38:16.202Z,68.10
2024-02-28T11:40:53.470Z,62.90
2024-02-28T11:43:27.012Z,65.20
2024-02-28T11:45:59.238Z,61.90
2024-02-28T11:48:32.322Z,66.10
2024-02-28T11:51:04.738Z,68.20
2024-02-28T11:53:36.856Z,56.40
2024-02-28T11:56:10.311Z,61.10
2024-02-28T11:58:53.423Z,57.40
2024-02-28T12:01:39.801Z,63.30
2024-02-28T12:04:12.427Z,62.20
2024-02-28T12:06:45.092Z,57.00
2024-02-28T12:09:21.868Z,55.10
2024-02-28T12:12:05.101Z,55.10
2024-02-28T12:14:40.658Z,53.30
2024-02-28T12:17:13.269Z,52.80
2024-02-28T12:19:45.609Z,51.20
2024-02-28T12:22:18.043Z,52.70
2024-02-28T12:24:49.985Z,51.90
2024-02-28T12:27:22.112Z,56.10
2024-02-28T12:29:54.161Z,56.10
2024-02-28T12:32:26.195Z,54.50
2024-02-28T12:34:58.236Z,51.10
2024-02-28T12:37:30.726Z,51.80
2024-02-28T12:40:05.987Z,52.00
2024-02-28T12:42:41.110Z,52.80
2024-02-28T12:45:13.672Z,54.20
2024-02-28T12:47:47.645Z,52.30
2024-02-28T12:50:22.936Z,46.70
2024-02-28T12:52:55.397Z,47.50
2024-02-28T12:55:27.403Z,46.90
2024-02-28T12:58:01.038Z,48.30
2024-02-28T13:00:33.267Z,47.80
2024-02-28T13:03:06.195Z,47.90
2024-02-28T13:05:38.527Z,45.20
2024-02-28T13:08:10.826Z,45.20
2024-02-28T13:10:43.245Z,44.10
2024-02-28T13:13:15.449Z,44.10
2024-02-28T13:15:47.520Z,43.90
2024-02-28T13:18:20.382Z,44.40
2024-02-28T13:20:52.671Z,39.50
2024-02-28T13:23:24.667Z,40.00
2024-02-28T13:25:56.861Z,40.70
2024-02-28T13:28:30.859Z,38.80
2024-02-28T13:31:05.342Z,39.20
2024-02-28T13:33:38.262Z,37.80
2024-02-28T13:36:11.043Z,37.10
2024-02-28T13:38:43.069Z,39.20
2024-02-28T13:41:15.591Z,36.00
2024-02-28T13:43:47.453Z,40.30
2024-02-28T13:46:20.611Z,39.50
2024-02-28T13:48:52.737Z,39.50
2024-02-28T13:51:25.555Z,40.40
2024-02-28T13:53:57.732Z,39.40
2024-02-28T13:56:31.924Z,39.50
2024-02-28T13:59:03.835Z,40.80
2024-02-28T14:01:36.124Z,36.60
2024-02-28T14:04:08.684Z,35.90
2024-02-28T14:06:40.917Z,32.80
2024-02-28T14:09:13.314Z,32.20
2024-02-28T14:11:46.318Z,34.50
2024-02-28T14:14:18.804Z,33.40
2024-02-28T14:16:50.988Z,36.40
2024-02-28T14:19:23.287Z,32.80
2024-02-28T14:21:55.640Z,30.80
2024-02-28T14:24:28.047Z,27.40
2024-02-28T14:27:00.095Z,27.30
2024-02-28T14:29:32.030Z,26.20
2024-02-28T14:32:04.427Z,27.60
2024-02-28T14:34:36.944Z,26.20
2024-02-28T14:37:09.138Z,26.20
2024-02-28T14:39:41.128Z,25.30
2024-02-28T14:42:13.558Z,23.10
2024-02-28T14:44:45.947Z,25.10
2024-02-28T14:47:18.073Z,27.40
2024-02-28T14:49:50.904Z,26.70
2024-02-28T14:52:23.452Z,26.00
2024-02-28T14:54:56.082Z,23.90
2024-02-28T14:57:28.154Z,25.10
2024-02-28T15:00:00.289Z,27.40
2024-02-28T15:02:32.869Z,26.50
2024-02-28T15:05:06.733Z,26.10
2024-02-28T15:07:40.115Z,24.60
2024-02-28T15:10:15.187Z,26.10
2024-02-28T15:12:47.314Z,25.70
2024-02-28T15:15:19.869Z,25.30
2024-02-28T15:17:52.342Z,29.80
2024-02-28T15:20:24.832Z,26.50
2024-02-28T15:22:57.389Z,25.80
2024-02-28T15:25:29.305Z,24.80
2024-02-28T15:28:01.376Z,24.70
2024-02-28T15:30:33.609Z,26.60
2024-02-28T15:33:06.914Z,26.20
2024-02-28T15:35:41.270Z,26.30
2024-02-28T15:38:14.368Z,25.90
2024-02-28T15:40:46.543Z,26.00
2024-02-28T15:43:18.512Z,29.20
2024-02-28T15:45:50.971Z,25.90
2024-02-28T15:48:23.102Z,25.30
2024-02-28T15:50:56.379Z,29.10
2024-02-28T15:53:28.340Z,27.00
2024-02-28T15:56:00.480Z,26.10
2024-02-28T15:58:32.432Z,24.50
2024-02-28T16:01:04.700Z,26.40
2024-02-28T16:03:38.341Z,31.10
2024-02-28T16:06:11.408Z,28.30
2024-02-28T16:08:45.087Z,28.60
2024-02-28T16:11:17.309Z,25.80
2024-02-28T16:13:49.727Z,27.00
2024-02-28T16:16:21.646Z,30.50
2024-02-28T16:18:53.865Z,26.90
2024-02-28T16:21:26.323Z,30.60
2024-02-28T16:23:58.281Z,28.20
2024-02-28T16:26:30.301Z,31.80
2024-02-28T16:29:02.314Z,28.70
2024-02-28T16:31:34.462Z,26.40
2024-02-28T16:34:06.581Z,30.30
2024-02-28T16:36:38.744Z,29.90
2024-02-28T16:39:10.647Z,29.10
2024-02-28T16:41:42.754Z,25.90
2024-02-28T16:44:14.789Z,28.80
2024-02-28T16:46:46.719Z,27.80
2024-02-28T16:49:19.035Z,25.10
2024-02-28T16:51:51.039Z,24.90
2024-02-28T16:54:23.465Z,27.30
2024-02-28T16:56:55.695Z,27.00
2024-02-28T16:59:27.858Z,26.70
2024-02-28T17:02:00.156Z,26.70
2024-02-28T17:04:34.061Z,25.90
2024-02-28T17:07:06.361Z,24.30
2024-02-28T17:09:38.356Z,24.40
2024-02-28T17:12:10.827Z,25.00
2024-02-28T17:14:43.704Z,29.10
2024-02-28T17:17:16.135Z,25.40
2024-02-28T17:19:49.479Z,25.40
2024-02-28T17:22:21.578Z,25.80
2024-02-28T17:24:53.725Z,24.10
2024-02-28T17:27:26.175Z,26.20
2024-02-28T17:29:58.458Z,30.10
2024-02-28T17:32:30.771Z,29.10
2024-02-28T17:35:05.120Z,28.50
2024-02-28T17:37:37.741Z,25.90
2024-02-28T17:40:12.896Z,24.90
2024-02-28T17:42:45.080Z,25.60
2024-02-28T17:45:18.278Z,27.30
2024-02-28T17:47:50.195Z,28.60
2024-02-28T17:50:25.674Z,27.80
2024-02-28T17:52:57.774Z,26.90
2024-02-28T17:55:30.650Z,27.70
2024-02-28T17:58:02.869Z,26.20
2024-02-28T18:00:35.464Z,25.50
2024-02-28T18:03:08.519Z,27.60
2024-02-28T18:05:40.917Z,25.50
2024-02-28T18:08:13.451Z,26.20
2024-02-28T18:10:45.474Z,25.70
2024-02-28T18:13:19.385Z,25.70
2024-02-28T18:15:51.909Z,25.00
2024-02-28T18:18:24.007Z,27.10
2024-02-28T18:20:56.372Z,24.70
2024-02-28T18:23:34.200Z,24.30
2024-02-28T18:26:09.490Z,26.80
2024-02-28T18:28:42.129Z,25.60
2024-02-28T18:31:17.355Z,25.60
2024-02-28T18:33:49.443Z,24.00
2024-02-28T18:36:23.931Z,26.90
2024-02-28T18:38:56.307Z,25.90
2024-02-28T18:41:28.321Z,22.40
2024-02-28T18:44:00.337Z,23.60
2024-02-28T18:46:32.369Z,22.00
2024-02-28T18:49:04.373Z,23.10
2024-02-28T18:51:36.436Z,22.80
2024-02-28T18:54:08.723Z,21.80
2024-02-28T18:56:40.897Z,26.60
2024-02-28T18:59:12.797Z,21.30
2024-02-28T19:01:47.354Z,22.10
2024-02-28T19:04:20.387Z,23.90
2024-02-28T19:06:52.703Z,22.20
2024-02-28T19:09:25.324Z,23.20
2024-02-28T19:11:57.511Z,20.40
2024-02-28T19:14:29.623Z,22.80
2024-02-28T19:17:02.723Z,25.40
2024-02-28T19:19:34.910Z,22.80
2024-02-28T19:22:07.572Z,22.40
2024-02-28T19:24:39.591Z,23.80
2024-02-28T19:27:11.570Z,22.20
2024-02-28T19:29:43.781Z,23.20
2024-02-28T19:32:16.634Z,22.60
2024-02-28T19:34:48.744Z,21.60
2024-02-28T19:37:21.482Z,21.10
2024-02-28T19:39:57.876Z,21.50
2024-02-28T19:42:29.874Z,21.60
2024-02-28T19:45:01.870Z,19.90
2024-02-28T19:47:34.713Z,20.70
2024-02-28T19:50:08.286Z,20.50
2024-02-28T19:52:41.257Z,22.80
2024-02-28T19:55:13.506Z,20.40
2024-02-28T19:57:46.100Z,21.10
2024-02-28T20:00:19.919Z,19.50
2024-02-28T20:02:52.378Z,21.30
2024-02-28T20:05:24.441Z,20.20
2024-02-28T20:07:56.514Z,22.00
2024-02-28T20:10:28.546Z,22.10
2024-02-28T20:13:02.077Z,22.50
2024-02-28T20:15:34.216Z,26.50
2024-02-28T20:18:07.058Z,21.00
2024-02-28T20:20:39.092Z,23.00
2024-02-28T20:23:11.483Z,25.80
2024-02-28T20:25:43.999Z,24.70
2024-02-28T20:28:18.251Z,22.50
2024-02-28T20:30:52.256Z,24.10
2024-02-28T20:33:26.515Z,24.90
2024-02-28T20:35:58.774Z,25.90
2024-02-28T20:38:31.185Z,25.00
2024-02-28T20:41:03.257Z,26.20
2024-02-28T20:43:35.667Z,25.60
2024-02-28T20:46:08.139Z,22.70
2024-02-28T20:48:42.452Z,25.60
2024-02-28T20:51:14.811Z,24.60
2024-02-28T20:53:54.529Z,26.00
2024-02-28T20:56:27.759Z,30.60
2024-02-28T20:59:02.016Z,29.80
2024-02-28T21:01:34.252Z,27.40
2024-02-28T21:04:08.078Z,29.40
2024-02-28T21:06:40.373Z,25.90
2024-02-28T21:09:12.617Z,30.10
2024-02-28T21:11:44.571Z,28.10
2024-02-28T21:14:17.061Z,26.90
2024-02-28T21:16:49.133Z,29.40
2024-02-28T21:19:21.627Z,27.60
2024-02-28T21:21:53.699Z,29.00
2024-02-28T21:24:25.796Z,27.60
2024-02-28T21:26:57.793Z,29.70
2024-02-28T21:29:29.719Z,31.20
2024-02-28T21:32:01.857Z,28.20
2024-02-28T21:34:33.797Z,29.00
2024-02-28T21:37:06.380Z,29.80
2024-02-28T21:39:38.390Z,31.10
2024-02-28T21:42:10.791Z,30.20
2024-02-28T21:44:42.959Z,33.20
2024-02-28T21:47:15.648Z,29.90
2024-02-28T21:49:47.738Z,30.10
2024-02-28T21:52:19.951Z,28.40
2024-02-28T21:54:52.762Z,31.70
2024-02-28T21:57:24.920Z,28.10
2024-02-28T21:59:56.967Z,29.40
2024-02-28T22:02:29.319Z,29.80
2024-02-28T22:05:01.630Z,31.30
2024-02-28T22:07:34.300Z,29.60
2024-02-28T22:10:08.361Z,27.60
2024-02-28T22:12:40.686Z,31.00
2024-02-28T22:15:14.374Z,30.90
2024-02-28T22:17:46.636Z,32.50
2024-02-28T22:20:19.099Z,29.00
2024-02-28T22:22:51.006Z,28.40
2024-02-28T22:25:23.026Z,25.30
2024-02-28T22:27:55.093Z,24.10
2024-02-28T22:30:27.125Z,24.30
2024-02-28T22:32:59.147Z,25.50
2024-02-28T22:35:31.185Z,23.10
2024-02-28T22:38:03.094Z,25.50
2024-02-28T22:40:35.477Z,22.30
2024-02-28T22:43:07.965Z,20.40
2024-02-28T22:45:41.601Z,19.80
2024-02-28T22:48:14.173Z,20.20
2024-02-28T22:50:46.229Z,19.40
2024-02-28T22:53:18.769Z,19.80
2024-02-28T22:55:50.905Z,18.40
2024-02-28T22:58:22.982Z,16.80
2024-02-28T23:00:55.012Z,17.40
2024-02-28T23:03:27.833Z,20.90
2024-02-28T23:06:01.540Z,20.70
2024-02-28T23:08:34.098Z,21.30
2024-02-28T23:11:06.261Z,18.60
2024-02-28T23:13:40.065Z,18.00
2024-02-28T23:16:12.329Z,19.20
2024-02-28T23:18:44.377Z,17.90
2024-02-28T23:21:16.862Z,18.50
2024-02-28T23:23:48.741Z,19.80
2024-02-28T23:26:20.761Z,18.60
2024-02-28T23:28:52.769Z,18.20
2024-02-28T23:31:24.745Z,18.50
2024-02-28T23:33:56.894Z,18.40
2024-02-28T23:36:29.074Z,18.40
2024-02-28T23:39:01.187Z,19.10
2024-02-28T23:41:34.493Z,17.30
2024-02-28T23:44:06.409Z,18.30
2024-02-28T23:46:38.507Z,15.30
2024-02-28T23:49:10.656Z,18.40
2024-02-28T23:51:45.694Z,16.20
2024-02-28T23:54:18.075Z,17.40
2024-02-28T23:56:50.070Z,16.50
2024-02-28T23:59:22.121Z,17.70
